JSA791 WSSS-ROAH
Flight info
| Callsign | JSA791 |
|---|---|
| Flight time | N/A |
| Altitude | 35000 |
| Route | TOMAN3A TOMAN L625 AKMON/K0843F360 L625 ANOKI/N0450F360 L625 MEVIN/N0442F370 B462 MJC Y57 VELNO |
| Aircraft | A320/M-SDE3FGHIRWY/LB1 |
Departure
| Time | N/A |
|---|---|
| Airport | Singapore Changi Airport (WSSS) |
Arrival
| Time | 2026-05-04 03:24 |
|---|---|
| Airport | Naha International Airport (ROAH) |
| Time | Latitude | Longitude | Altitude | Speed | Heading |
|---|---|---|---|---|---|
| 2026-05-04 02:26 | 25.02046 | 125.72301 | 34390 ft | 453 kts | 57° |
| 2026-05-04 02:26 | 25.03708 | 125.75245 | 33894 ft | 451 kts | 58° |
| 2026-05-04 02:27 | 25.05362 | 125.78182 | 33382 ft | 449 kts | 58° |
| 2026-05-04 02:27 | 25.07005 | 125.81104 | 32883 ft | 447 kts | 58° |
| 2026-05-04 02:27 | 25.08639 | 125.84014 | 32390 ft | 445 kts | 58° |
| 2026-05-04 02:27 | 25.10266 | 125.86913 | 31893 ft | 443 kts | 58° |
| 2026-05-04 02:28 | 25.11886 | 125.89803 | 31406 ft | 442 kts | 58° |
| 2026-05-04 02:28 | 25.13497 | 125.92678 | 30928 ft | 440 kts | 58° |
| 2026-05-04 02:28 | 25.15098 | 125.95543 | 30461 ft | 437 kts | 58° |
| 2026-05-04 02:28 | 25.16694 | 125.98393 | 29996 ft | 436 kts | 58° |
| 2026-05-04 02:29 | 25.18263 | 126.01194 | 29548 ft | 434 kts | 58° |
| 2026-05-04 02:29 | 25.19845 | 126.04017 | 29103 ft | 432 kts | 58° |
| 2026-05-04 02:29 | 25.21420 | 126.06827 | 28673 ft | 429 kts | 58° |
| 2026-05-04 02:29 | 25.22986 | 126.09627 | 28240 ft | 427 kts | 58° |
| 2026-05-04 02:30 | 25.24543 | 126.12414 | 27801 ft | 426 kts | 58° |
| 2026-05-04 02:30 | 25.26096 | 126.15193 | 27359 ft | 425 kts | 58° |
| 2026-05-04 02:30 | 25.27645 | 126.17966 | 26922 ft | 423 kts | 58° |
| 2026-05-04 02:30 | 25.29188 | 126.20732 | 26476 ft | 423 kts | 58° |
| 2026-05-04 02:31 | 25.30729 | 126.23495 | 26011 ft | 422 kts | 58° |
| 2026-05-04 02:31 | 25.32266 | 126.26255 | 25548 ft | 422 kts | 58° |
| 2026-05-04 02:31 | 25.33804 | 126.29018 | 25078 ft | 421 kts | 58° |
| 2026-05-04 02:31 | 25.35336 | 126.31775 | 24583 ft | 421 kts | 58° |
| 2026-05-04 02:32 | 25.36867 | 126.34533 | 24178 ft | 419 kts | 58° |
| 2026-05-04 02:32 | 25.38385 | 126.37272 | 23663 ft | 419 kts | 58° |
| 2026-05-04 02:32 | 25.39892 | 126.39996 | 23377 ft | 412 kts | 58° |
| 2026-05-04 02:32 | 25.41385 | 126.42692 | 22903 ft | 411 kts | 58° |
| 2026-05-04 02:33 | 25.42873 | 126.45375 | 22374 ft | 406 kts | 58° |
| 2026-05-04 02:33 | 25.44347 | 126.48027 | 21684 ft | 403 kts | 58° |
| 2026-05-04 02:33 | 25.45800 | 126.50639 | 21192 ft | 394 kts | 58° |
| 2026-05-04 02:33 | 25.47214 | 126.53190 | 20785 ft | 383 kts | 58° |
| 2026-05-04 02:34 | 25.48587 | 126.55674 | 20398 ft | 373 kts | 58° |
| 2026-05-04 02:34 | 25.49915 | 126.58090 | 20008 ft | 364 kts | 58° |
| 2026-05-04 02:34 | 25.51213 | 126.60455 | 19630 ft | 355 kts | 58° |
| 2026-05-04 02:34 | 25.52482 | 126.62768 | 19262 ft | 347 kts | 58° |
| 2026-05-04 02:35 | 25.53708 | 126.64997 | 18900 ft | 340 kts | 58° |
| 2026-05-04 02:35 | 25.54532 | 126.66495 | 18656 ft | 335 kts | 58° |
| 2026-05-04 02:35 | 25.56130 | 126.69409 | 18191 ft | 334 kts | 58° |
| 2026-05-04 02:35 | 25.57332 | 126.71603 | 17839 ft | 332 kts | 58° |
| 2026-05-04 02:36 | 25.58530 | 126.73786 | 17485 ft | 330 kts | 58° |
| 2026-05-04 02:36 | 25.59717 | 126.75949 | 17144 ft | 328 kts | 58° |
| 2026-05-04 02:36 | 25.60897 | 126.78103 | 16800 ft | 326 kts | 58° |
| 2026-05-04 02:36 | 25.62069 | 126.80245 | 16450 ft | 324 kts | 58° |
| 2026-05-04 02:37 | 25.62842 | 126.81660 | 16223 ft | 323 kts | 59° |
| 2026-05-04 02:37 | 25.64002 | 126.83783 | 15888 ft | 321 kts | 59° |
| 2026-05-04 02:37 | 25.65155 | 126.85894 | 15553 ft | 319 kts | 59° |
| 2026-05-04 02:37 | 25.66315 | 126.88019 | 15212 ft | 317 kts | 59° |
| 2026-05-04 02:38 | 25.67439 | 126.90079 | 14864 ft | 315 kts | 59° |
| 2026-05-04 02:38 | 25.68573 | 126.92158 | 14544 ft | 315 kts | 59° |
| 2026-05-04 02:38 | 25.69706 | 126.94233 | 14206 ft | 314 kts | 59° |
| 2026-05-04 02:38 | 25.70837 | 126.96309 | 13872 ft | 314 kts | 59° |
| 2026-05-04 02:39 | 25.71972 | 126.98387 | 13444 ft | 317 kts | 59° |
| 2026-05-04 02:39 | 25.73116 | 127.00480 | 13089 ft | 316 kts | 59° |
| 2026-05-04 02:39 | 25.74252 | 127.02563 | 12738 ft | 316 kts | 59° |
| 2026-05-04 02:39 | 25.75382 | 127.04644 | 12403 ft | 314 kts | 59° |
| 2026-05-04 02:40 | 25.76510 | 127.06721 | 12058 ft | 314 kts | 59° |
| 2026-05-04 02:40 | 25.77633 | 127.08790 | 11715 ft | 312 kts | 59° |
| 2026-05-04 02:40 | 25.78754 | 127.10851 | 11373 ft | 311 kts | 59° |
| 2026-05-04 02:40 | 25.79873 | 127.12905 | 11029 ft | 310 kts | 59° |
| 2026-05-04 02:41 | 25.80983 | 127.14947 | 10685 ft | 309 kts | 59° |
| 2026-05-04 02:41 | 25.82087 | 127.16985 | 10345 ft | 307 kts | 59° |
| 2026-05-04 02:41 | 25.83187 | 127.19015 | 10011 ft | 306 kts | 59° |
| 2026-05-04 02:41 | 25.84281 | 127.21035 | 9654 ft | 305 kts | 59° |
| 2026-05-04 02:42 | 25.85374 | 127.23049 | 9313 ft | 304 kts | 59° |
| 2026-05-04 02:42 | 25.86464 | 127.25056 | 8971 ft | 304 kts | 59° |
| 2026-05-04 02:42 | 25.87551 | 127.27059 | 8629 ft | 302 kts | 59° |
| 2026-05-04 02:42 | 25.88634 | 127.29051 | 8285 ft | 301 kts | 59° |
| 2026-05-04 02:43 | 25.89611 | 127.31097 | 7943 ft | 299 kts | 69° |
| 2026-05-04 02:43 | 25.90213 | 127.33296 | 7602 ft | 297 kts | 76° |
| 2026-05-04 02:43 | 25.90728 | 127.35513 | 7260 ft | 296 kts | 76° |
| 2026-05-04 02:43 | 25.91242 | 127.37717 | 6917 ft | 294 kts | 76° |
| 2026-05-04 02:44 | 25.91758 | 127.39915 | 6572 ft | 294 kts | 76° |
| 2026-05-04 02:44 | 25.92274 | 127.42103 | 6228 ft | 292 kts | 76° |
| 2026-05-04 02:44 | 25.92782 | 127.44277 | 5880 ft | 289 kts | 76° |
| 2026-05-04 02:44 | 25.93285 | 127.46438 | 5531 ft | 288 kts | 76° |
| 2026-05-04 02:45 | 25.93782 | 127.48577 | 5238 ft | 285 kts | 76° |
| 2026-05-04 02:45 | 25.94270 | 127.50681 | 4946 ft | 283 kts | 76° |
| 2026-05-04 02:45 | 25.94762 | 127.52792 | 4585 ft | 282 kts | 75° |
| 2026-05-04 02:45 | 25.95250 | 127.54892 | 4354 ft | 278 kts | 75° |
| 2026-05-04 02:46 | 25.95753 | 127.56957 | 3984 ft | 275 kts | 69° |
| 2026-05-04 02:46 | 25.96619 | 127.58815 | 3555 ft | 269 kts | 53° |
| 2026-05-04 02:46 | 25.97896 | 127.60292 | 3150 ft | 262 kts | 36° |
| 2026-05-04 02:46 | 25.99372 | 127.61399 | 2979 ft | 248 kts | 32° |
| 2026-05-04 02:47 | 26.00756 | 127.62427 | 2883 ft | 231 kts | 32° |
| 2026-05-04 02:47 | 26.02041 | 127.63391 | 2786 ft | 216 kts | 32° |
| 2026-05-04 02:47 | 26.03281 | 127.64314 | 2695 ft | 213 kts | 32° |
| 2026-05-04 02:47 | 26.04557 | 127.65136 | 2602 ft | 212 kts | 18° |
| 2026-05-04 02:48 | 26.05976 | 127.65367 | 2392 ft | 206 kts | 357° |
| 2026-05-04 02:48 | 26.07407 | 127.65280 | 2104 ft | 205 kts | 357° |
| 2026-05-04 02:48 | 26.08786 | 127.65198 | 1988 ft | 193 kts | 357° |
| 2026-05-04 02:48 | 26.10110 | 127.65118 | 1830 ft | 189 kts | 357° |
| 2026-05-04 02:49 | 26.11405 | 127.65024 | 1488 ft | 182 kts | 358° |
| 2026-05-04 02:49 | 26.12640 | 127.65033 | 1163 ft | 171 kts | 1° |
| 2026-05-04 02:49 | 26.13782 | 127.65006 | 924 ft | 157 kts | 359° |
| 2026-05-04 02:49 | 26.14826 | 127.64945 | 715 ft | 144 kts | 358° |
| 2026-05-04 02:50 | 26.15807 | 127.64877 | 532 ft | 139 kts | 357° |
| 2026-05-04 02:50 | 26.16766 | 127.64806 | 357 ft | 137 kts | 358° |
| 2026-05-04 02:50 | 26.17715 | 127.64734 | 195 ft | 142 kts | 357° |
| 2026-05-04 02:50 | 26.18745 | 127.64647 | 794 ft | 150 kts | 357° |
| 2026-05-04 02:51 | 26.19811 | 127.64555 | 1652 ft | 161 kts | 357° |
| 2026-05-04 02:51 | 26.20994 | 127.64454 | 2049 ft | 181 kts | 356° |
| 2026-05-04 02:51 | 26.22323 | 127.64315 | 2393 ft | 201 kts | 348° |
| 2026-05-04 02:51 | 26.23553 | 127.63523 | 2885 ft | 219 kts | 315° |
| 2026-05-04 02:52 | 26.24293 | 127.61957 | 2988 ft | 238 kts | 283° |
| 2026-05-04 02:52 | 26.24190 | 127.60112 | 2998 ft | 244 kts | 252° |
| 2026-05-04 02:52 | 26.23484 | 127.58378 | 2998 ft | 247 kts | 243° |
| 2026-05-04 02:52 | 26.22332 | 127.56942 | 3004 ft | 258 kts | 213° |
| 2026-05-04 02:53 | 26.20633 | 127.56295 | 2999 ft | 263 kts | 183° |
| 2026-05-04 02:53 | 26.18802 | 127.56354 | 2993 ft | 264 kts | 175° |
| 2026-05-04 02:53 | 26.16970 | 127.56542 | 2988 ft | 264 kts | 174° |
| 2026-05-04 02:53 | 26.15143 | 127.56747 | 2989 ft | 264 kts | 174° |
| 2026-05-04 02:54 | 26.13317 | 127.56956 | 2985 ft | 264 kts | 174° |
| 2026-05-04 02:54 | 26.11492 | 127.57167 | 2981 ft | 264 kts | 174° |
| 2026-05-04 02:54 | 26.09665 | 127.57374 | 2925 ft | 263 kts | 174° |
| 2026-05-04 02:54 | 26.07870 | 127.57576 | 2794 ft | 255 kts | 174° |
| 2026-05-04 02:55 | 26.04479 | 127.57979 | 2542 ft | 236 kts | 166° |
| 2026-05-04 02:55 | 26.03077 | 127.58810 | 2422 ft | 227 kts | 132° |
| 2026-05-04 02:55 | 26.02307 | 127.60287 | 2305 ft | 220 kts | 100° |
| 2026-05-04 02:56 | 26.02327 | 127.61945 | 2172 ft | 214 kts | 70° |
| 2026-05-04 02:56 | 26.03070 | 127.63339 | 2077 ft | 211 kts | 46° |
| 2026-05-04 02:56 | 26.04172 | 127.64400 | 1997 ft | 209 kts | 31° |
| 2026-05-04 02:56 | 26.05493 | 127.65075 | 2007 ft | 208 kts | 15° |
| 2026-05-04 02:57 | 26.06865 | 127.65297 | 2007 ft | 192 kts | 360° |
| 2026-05-04 02:57 | 26.08145 | 127.65224 | 2030 ft | 184 kts | 358° |
| 2026-05-04 02:57 | 26.09417 | 127.65136 | 1755 ft | 184 kts | 357° |
| 2026-05-04 02:57 | 26.10677 | 127.65038 | 1376 ft | 179 kts | 356° |
| 2026-05-04 02:58 | 26.11883 | 127.64930 | 1056 ft | 167 kts | 356° |
| 2026-05-04 02:58 | 26.12994 | 127.64838 | 834 ft | 154 kts | 356° |
| 2026-05-04 02:58 | 26.14040 | 127.64756 | 708 ft | 151 kts | 356° |
| 2026-05-04 02:58 | 26.15153 | 127.64656 | 743 ft | 166 kts | 356° |
| 2026-05-04 02:59 | 26.16365 | 127.64553 | 850 ft | 185 kts | 356° |
| 2026-05-04 02:59 | 26.17710 | 127.64448 | 1580 ft | 205 kts | 355° |
| 2026-05-04 02:59 | 26.19176 | 127.63918 | 1929 ft | 230 kts | 327° |
| 2026-05-04 02:59 | 26.20208 | 127.62590 | 2000 ft | 235 kts | 295° |
| 2026-05-04 03:00 | 26.20456 | 127.60793 | 2007 ft | 240 kts | 263° |
| 2026-05-04 03:00 | 26.19810 | 127.59085 | 2009 ft | 245 kts | 231° |
| 2026-05-04 03:00 | 26.18441 | 127.57983 | 2016 ft | 246 kts | 199° |
| 2026-05-04 03:00 | 26.16736 | 127.57792 | 2516 ft | 249 kts | 176° |
| 2026-05-04 03:01 | 26.14995 | 127.57937 | 3503 ft | 252 kts | 174° |
| 2026-05-04 03:01 | 26.13237 | 127.58125 | 4411 ft | 256 kts | 174° |
| 2026-05-04 03:01 | 26.11447 | 127.58335 | 4842 ft | 258 kts | 174° |
| 2026-05-04 03:01 | 26.09683 | 127.58623 | 4973 ft | 255 kts | 164° |
| 2026-05-04 03:02 | 26.08160 | 127.59508 | 5010 ft | 242 kts | 139° |
| 2026-05-04 03:02 | 26.07129 | 127.60941 | 5009 ft | 236 kts | 120° |
| 2026-05-04 03:02 | 26.06305 | 127.62522 | 5004 ft | 236 kts | 121° |
| 2026-05-04 03:02 | 26.05426 | 127.64042 | 5004 ft | 234 kts | 132° |
| 2026-05-04 03:03 | 26.04172 | 127.65175 | 5004 ft | 233 kts | 154° |
| 2026-05-04 03:03 | 26.02640 | 127.65688 | 5011 ft | 231 kts | 175° |
| 2026-05-04 03:03 | 26.01043 | 127.65865 | 5016 ft | 230 kts | 175° |
| 2026-05-04 03:03 | 25.99449 | 127.66047 | 5018 ft | 230 kts | 175° |
| 2026-05-04 03:04 | 25.97877 | 127.66229 | 5020 ft | 231 kts | 175° |
| 2026-05-04 03:04 | 25.96285 | 127.66387 | 5013 ft | 229 kts | 182° |
| 2026-05-04 03:04 | 25.94763 | 127.65948 | 5014 ft | 227 kts | 211° |
| 2026-05-04 03:04 | 25.93627 | 127.64752 | 5016 ft | 229 kts | 240° |
| 2026-05-04 03:05 | 25.93150 | 127.63083 | 5012 ft | 230 kts | 268° |
| 2026-05-04 03:05 | 25.93468 | 127.61362 | 5013 ft | 230 kts | 297° |
| 2026-05-04 03:05 | 25.94499 | 127.60018 | 5009 ft | 232 kts | 325° |
| 2026-05-04 03:05 | 25.96005 | 127.59397 | 5009 ft | 235 kts | 355° |
| 2026-05-04 03:06 | 25.97606 | 127.59697 | 5009 ft | 237 kts | 25° |
| 2026-05-04 03:06 | 25.98869 | 127.60856 | 5009 ft | 239 kts | 56° |
| 2026-05-04 03:06 | 25.99650 | 127.62480 | 5013 ft | 238 kts | 63° |
| 2026-05-04 03:06 | 26.00413 | 127.64106 | 5005 ft | 237 kts | 54° |
| 2026-05-04 03:07 | 26.01636 | 127.65283 | 5009 ft | 234 kts | 24° |
| 2026-05-04 03:07 | 26.03216 | 127.65623 | 5010 ft | 233 kts | 356° |
| 2026-05-04 03:07 | 26.04828 | 127.65449 | 5016 ft | 234 kts | 351° |
| 2026-05-04 03:07 | 26.06315 | 127.64784 | 5013 ft | 231 kts | 321° |
| 2026-05-04 03:08 | 26.07305 | 127.63388 | 5019 ft | 232 kts | 292° |
| 2026-05-04 03:08 | 26.07541 | 127.61636 | 5009 ft | 232 kts | 263° |
| 2026-05-04 03:08 | 26.06959 | 127.59982 | 5010 ft | 234 kts | 232° |
| 2026-05-04 03:08 | 26.05705 | 127.58863 | 5013 ft | 235 kts | 202° |
| 2026-05-04 03:09 | 26.04098 | 127.58586 | 5013 ft | 236 kts | 175° |
| 2026-05-04 03:09 | 26.02456 | 127.58768 | 5008 ft | 237 kts | 174° |
| 2026-05-04 03:09 | 26.00815 | 127.58965 | 5008 ft | 237 kts | 174° |
| 2026-05-04 03:09 | 25.99170 | 127.59163 | 5005 ft | 238 kts | 174° |
| 2026-05-04 03:10 | 25.97529 | 127.59378 | 5004 ft | 237 kts | 169° |
| 2026-05-04 03:10 | 25.96047 | 127.60133 | 5009 ft | 237 kts | 139° |
| 2026-05-04 03:10 | 25.95114 | 127.61616 | 5009 ft | 237 kts | 108° |
| 2026-05-04 03:10 | 25.94990 | 127.63417 | 5012 ft | 236 kts | 77° |
| 2026-05-04 03:11 | 25.95703 | 127.65037 | 5010 ft | 236 kts | 46° |
| 2026-05-04 03:11 | 25.97048 | 127.66031 | 5009 ft | 234 kts | 16° |
| 2026-05-04 03:11 | 25.98654 | 127.66167 | 5016 ft | 233 kts | 354° |
| 2026-05-04 03:11 | 26.00276 | 127.65987 | 5015 ft | 234 kts | 353° |
| 2026-05-04 03:12 | 26.01899 | 127.65792 | 5017 ft | 234 kts | 353° |
| 2026-05-04 03:12 | 26.03514 | 127.65595 | 5022 ft | 234 kts | 353° |
| 2026-05-04 03:12 | 26.05129 | 127.65368 | 5021 ft | 235 kts | 346° |
| 2026-05-04 03:12 | 26.06541 | 127.64564 | 5016 ft | 233 kts | 316° |
| 2026-05-04 03:13 | 26.07413 | 127.63075 | 5017 ft | 232 kts | 287° |
| 2026-05-04 03:13 | 26.07517 | 127.61305 | 5009 ft | 232 kts | 257° |
| 2026-05-04 03:13 | 26.06829 | 127.59706 | 5006 ft | 233 kts | 228° |
| 2026-05-04 03:13 | 26.05501 | 127.58690 | 5010 ft | 236 kts | 198° |
| 2026-05-04 03:14 | 26.03881 | 127.58519 | 5008 ft | 236 kts | 175° |
| 2026-05-04 03:14 | 26.02243 | 127.58699 | 5004 ft | 236 kts | 174° |
| 2026-05-04 03:14 | 26.00612 | 127.58897 | 5008 ft | 237 kts | 174° |
| 2026-05-04 03:14 | 25.98977 | 127.59098 | 5007 ft | 236 kts | 174° |
| 2026-05-04 03:15 | 25.97343 | 127.59323 | 5007 ft | 237 kts | 167° |
| 2026-05-04 03:15 | 25.95890 | 127.60137 | 5006 ft | 237 kts | 136° |
| 2026-05-04 03:15 | 25.95005 | 127.61657 | 5006 ft | 236 kts | 105° |
| 2026-05-04 03:15 | 25.94925 | 127.63451 | 5009 ft | 235 kts | 76° |
| 2026-05-04 03:16 | 25.95661 | 127.65053 | 5007 ft | 235 kts | 45° |
| 2026-05-04 03:16 | 25.97018 | 127.66030 | 5008 ft | 234 kts | 15° |
| 2026-05-04 03:16 | 25.98621 | 127.66165 | 5013 ft | 233 kts | 353° |
| 2026-05-04 03:16 | 26.00243 | 127.65983 | 5015 ft | 234 kts | 353° |
| 2026-05-04 03:17 | 26.01864 | 127.65789 | 5016 ft | 234 kts | 353° |
| 2026-05-04 03:17 | 26.03482 | 127.65594 | 4996 ft | 234 kts | 353° |
| 2026-05-04 03:17 | 26.05100 | 127.65373 | 4736 ft | 232 kts | 346° |
| 2026-05-04 03:17 | 26.06512 | 127.64596 | 4495 ft | 226 kts | 317° |
| 2026-05-04 03:18 | 26.07394 | 127.63186 | 4238 ft | 223 kts | 290° |
| 2026-05-04 03:18 | 26.07571 | 127.61491 | 3981 ft | 223 kts | 263° |
| 2026-05-04 03:18 | 26.07004 | 127.59889 | 3743 ft | 226 kts | 234° |
| 2026-05-04 03:18 | 26.05798 | 127.58773 | 3493 ft | 229 kts | 204° |
| 2026-05-04 03:19 | 26.04252 | 127.58475 | 3240 ft | 229 kts | 171° |
| 2026-05-04 03:19 | 26.02830 | 127.59195 | 2994 ft | 227 kts | 134° |
| 2026-05-04 03:19 | 26.02052 | 127.60658 | 2739 ft | 220 kts | 98° |
| 2026-05-04 03:19 | 26.02129 | 127.62308 | 2489 ft | 213 kts | 66° |
| 2026-05-04 03:20 | 26.02963 | 127.63623 | 2239 ft | 209 kts | 40° |
| 2026-05-04 03:20 | 26.04041 | 127.64704 | 2055 ft | 208 kts | 40° |
| 2026-05-04 03:20 | 26.05214 | 127.65629 | 2025 ft | 207 kts | 15° |
| 2026-05-04 03:20 | 26.06646 | 127.65704 | 2026 ft | 208 kts | 353° |
| 2026-05-04 03:21 | 26.08055 | 127.65497 | 2011 ft | 196 kts | 353° |
| 2026-05-04 03:21 | 26.09359 | 127.65297 | 1854 ft | 183 kts | 352° |
| 2026-05-04 03:21 | 26.10581 | 127.65104 | 1564 ft | 170 kts | 353° |
| 2026-05-04 03:21 | 26.11699 | 127.64930 | 1335 ft | 154 kts | 355° |
| 2026-05-04 03:22 | 26.12726 | 127.64886 | 1127 ft | 144 kts | 358° |
| 2026-05-04 03:22 | 26.13701 | 127.64846 | 940 ft | 138 kts | 359° |
| 2026-05-04 03:22 | 26.14643 | 127.64811 | 726 ft | 136 kts | 359° |
| 2026-05-04 03:22 | 26.15591 | 127.64774 | 515 ft | 136 kts | 358° |
| 2026-05-04 03:23 | 26.16532 | 127.64734 | 365 ft | 136 kts | 358° |
| 2026-05-04 03:23 | 26.17471 | 127.64689 | 203 ft | 134 kts | 359° |
| 2026-05-04 03:23 | 26.18401 | 127.64648 | 40 ft | 133 kts | 358° |
| 2026-05-04 03:23 | 26.19229 | 127.64610 | 26 ft | 98 kts | 358° |
| 2026-05-04 03:24 | 26.19736 | 127.64587 | 20 ft | 48 kts | 357° |
| 2026-05-04 03:24 | 26.19997 | 127.64575 | 20 ft | 35 kts | 358° |
| 2026-05-04 03:24 | 26.20185 | 127.64584 | 22 ft | 21 kts | 13° |
| 2026-05-04 03:24 | 26.20323 | 127.64643 | 22 ft | 20 kts | 27° |
| 2026-05-04 03:25 | 26.20416 | 127.64696 | 22 ft | 14 kts | 28° |
| 2026-05-04 03:25 | 26.20508 | 127.64751 | 22 ft | 14 kts | 25° |
| 2026-05-04 03:25 | 26.20576 | 127.64757 | 22 ft | 10 kts | 4° |
| 2026-05-04 03:25 | 26.20631 | 127.64807 | 22 ft | 11 kts | 70° |
| 2026-05-04 03:26 | 26.20635 | 127.64874 | 22 ft | 6 kts | 89° |
| 2026-05-04 03:26 | 26.20602 | 127.64907 | 22 ft | 8 kts | 146° |
| 2026-05-04 03:26 | 26.20567 | 127.64933 | 22 ft | 1 kts | 146° |
| 2026-05-04 03:26 | 26.20566 | 127.64934 | 22 ft | 0 kts | 146° |